sensor_id;sensor_type;location;lat;lon;timestamp;pressure;altitude;pressure_sealevel;temperature;humidity
41250;BME280;26984;59.928;30.306;2022-09-21T00:00:25;101477.53;;;10.17;100.00
41250;BME280;26984;59.928;30.306;2022-09-21T00:02:54;101485.00;;;10.15;100.00
41250;BME280;26984;59.928;30.306;2022-09-21T00:05:22;101487.03;;;10.13;100.00
41250;BME280;26984;59.928;30.306;2022-09-21T00:07:49;101478.88;;;10.06;100.00
41250;BME280;26984;59.928;30.306;2022-09-21T00:10:17;101481.78;;;10.05;100.00
41250;BME280;26984;59.928;30.306;2022-09-21T00:12:45;101484.84;;;10.02;100.00
41250;BME280;26984;59.928;30.306;2022-09-21T00:15:15;101485.50;;;10.04;100.00
41250;BME280;26984;59.928;30.306;2022-09-21T00:17:43;101490.38;;;9.94;100.00
41250;BME280;26984;59.928;30.306;2022-09-21T00:20:12;101489.09;;;9.90;100.00
41250;BME280;26984;59.928;30.306;2022-09-21T00:22:39;101500.03;;;9.88;100.00
41250;BME280;26984;59.928;30.306;2022-09-21T00:25:07;101496.97;;;9.91;100.00
41250;BME280;26984;59.928;30.306;2022-09-21T00:27:35;101497.25;;;9.81;100.00
41250;BME280;26984;59.928;30.306;2022-09-21T00:30:03;101503.88;;;9.79;100.00
41250;BME280;26984;59.928;30.306;2022-09-21T00:32:33;101513.81;;;9.78;100.00
41250;BME280;26984;59.928;30.306;2022-09-21T00:35:01;101516.22;;;9.73;100.00
41250;BME280;26984;59.928;30.306;2022-09-21T00:37:29;101514.63;;;9.79;100.00
41250;BME280;26984;59.928;30.306;2022-09-21T00:39:56;101520.78;;;9.73;100.00
41250;BME280;26984;59.928;30.306;2022-09-21T00:42:24;101522.19;;;9.69;100.00
41250;BME280;26984;59.928;30.306;2022-09-21T00:44:52;101526.66;;;9.62;100.00
41250;BME280;26984;59.928;30.306;2022-09-21T00:47:21;101526.06;;;9.66;100.00
41250;BME280;26984;59.928;30.306;2022-09-21T00:49:50;101535.88;;;9.74;100.00
41250;BME280;26984;59.928;30.306;2022-09-21T00:52:19;101537.94;;;9.72;100.00
41250;BME280;26984;59.928;30.306;2022-09-21T00:54:49;101524.66;;;9.70;100.00
41250;BME280;26984;59.928;30.306;2022-09-21T00:57:17;101536.84;;;9.66;100.00
41250;BME280;26984;59.928;30.306;2022-09-21T00:59:46;101539.53;;;9.66;100.00
41250;BME280;26984;59.928;30.306;2022-09-21T01:02:15;101537.78;;;9.58;100.00
41250;BME280;26984;59.928;30.306;2022-09-21T01:04:42;101532.97;;;9.54;100.00
41250;BME280;26984;59.928;30.306;2022-09-21T01:07:12;101534.34;;;9.65;100.00
41250;BME280;26984;59.928;30.306;2022-09-21T01:09:43;101531.09;;;9.54;100.00
41250;BME280;26984;59.928;30.306;2022-09-21T01:12:15;101536.13;;;9.57;100.00
41250;BME280;26984;59.928;30.306;2022-09-21T01:14:52;101534.81;;;9.53;100.00
41250;BME280;26984;59.928;30.306;2022-09-21T01:17:23;101540.94;;;9.47;100.00
41250;BME280;26984;59.928;30.306;2022-09-21T01:22:45;101541.13;;;9.46;100.00
41250;BME280;26984;59.928;30.306;2022-09-21T01:25:20;101548.56;;;9.44;100.00
41250;BME280;26984;59.928;30.306;2022-09-21T01:27:55;101544.94;;;9.37;100.00
41250;BME280;26984;59.928;30.306;2022-09-21T01:30:25;101554.31;;;9.41;100.00
41250;BME280;26984;59.928;30.306;2022-09-21T01:32:54;101543.09;;;9.37;100.00
41250;BME280;26984;59.928;30.306;2022-09-21T01:35:26;101555.41;;;9.31;100.00
41250;BME280;26984;59.928;30.306;2022-09-21T01:37:55;101559.13;;;9.30;100.00
41250;BME280;26984;59.928;30.306;2022-09-21T01:40:26;101558.38;;;9.37;100.00
41250;BME280;26984;59.928;30.306;2022-09-21T01:42:54;101559.31;;;9.29;100.00
41250;BME280;26984;59.928;30.306;2022-09-21T01:45:24;101562.91;;;9.21;100.00
41250;BME280;26984;59.928;30.306;2022-09-21T01:47:55;101559.75;;;9.18;100.00
41250;BME280;26984;59.928;30.306;2022-09-21T01:50:23;101563.94;;;9.20;100.00
41250;BME280;26984;59.928;30.306;2022-09-21T01:52:53;101568.28;;;9.21;100.00
41250;BME280;26984;59.928;30.306;2022-09-21T01:55:23;101566.81;;;9.19;100.00
41250;BME280;26984;59.928;30.306;2022-09-21T01:57:54;101573.59;;;9.15;100.00
41250;BME280;26984;59.928;30.306;2022-09-21T02:00:24;101574.69;;;9.20;100.00
41250;BME280;26984;59.928;30.306;2022-09-21T02:02:52;101572.47;;;9.24;100.00
41250;BME280;26984;59.928;30.306;2022-09-21T02:05:24;101582.03;;;9.26;100.00
41250;BME280;26984;59.928;30.306;2022-09-21T02:07:52;101577.38;;;9.20;100.00
41250;BME280;26984;59.928;30.306;2022-09-21T02:10:21;101579.59;;;9.17;100.00
41250;BME280;26984;59.928;30.306;2022-09-21T02:12:51;101581.91;;;9.20;100.00
41250;BME280;26984;59.928;30.306;2022-09-21T02:15:20;101587.31;;;9.20;100.00
41250;BME280;26984;59.928;30.306;2022-09-21T02:17:51;101584.81;;;9.18;100.00
41250;BME280;26984;59.928;30.306;2022-09-21T02:20:26;101587.84;;;9.15;100.00
41250;BME280;26984;59.928;30.306;2022-09-21T02:22:57;101590.19;;;9.18;100.00
41250;BME280;26984;59.928;30.306;2022-09-21T02:25:30;101591.03;;;9.19;100.00
41250;BME280;26984;59.928;30.306;2022-09-21T02:28:03;101594.63;;;9.11;100.00
41250;BME280;26984;59.928;30.306;2022-09-21T02:30:33;101600.00;;;9.11;100.00
41250;BME280;26984;59.928;30.306;2022-09-21T02:33:04;101603.69;;;9.10;100.00
41250;BME280;26984;59.928;30.306;2022-09-21T02:35:36;101608.91;;;9.11;100.00
41250;BME280;26984;59.928;30.306;2022-09-21T02:38:06;101606.31;;;9.18;100.00
41250;BME280;26984;59.928;30.306;2022-09-21T02:40:35;101606.31;;;9.18;100.00
41250;BME280;26984;59.928;30.306;2022-09-21T02:43:07;101612.31;;;9.20;100.00
41250;BME280;26984;59.928;30.306;2022-09-21T02:45:36;101618.00;;;9.25;100.00
41250;BME280;26984;59.928;30.306;2022-09-21T02:48:06;101615.94;;;9.27;100.00
41250;BME280;26984;59.928;30.306;2022-09-21T02:50:37;101622.81;;;9.30;100.00
41250;BME280;26984;59.928;30.306;2022-09-21T02:53:07;101625.69;;;9.28;100.00
41250;BME280;26984;59.928;30.306;2022-09-21T02:55:36;101633.03;;;9.34;100.00
41250;BME280;26984;59.928;30.306;2022-09-21T02:58:05;101623.84;;;9.29;100.00
41250;BME280;26984;59.928;30.306;2022-09-21T03:00:34;101629.59;;;9.26;100.00
41250;BME280;26984;59.928;30.306;2022-09-21T03:03:12;101628.28;;;9.22;100.00
41250;BME280;26984;59.928;30.306;2022-09-21T03:05:43;101631.34;;;9.19;100.00
41250;BME280;26984;59.928;30.306;2022-09-21T03:08:11;101630.59;;;9.25;100.00
41250;BME280;26984;59.928;30.306;2022-09-21T03:10:38;101634.78;;;9.27;100.00
41250;BME280;26984;59.928;30.306;2022-09-21T03:13:06;101644.81;;;9.33;100.00
41250;BME280;26984;59.928;30.306;2022-09-21T03:15:34;101642.28;;;9.32;100.00
41250;BME280;26984;59.928;30.306;2022-09-21T03:18:02;101646.94;;;9.38;100.00
41250;BME280;26984;59.928;30.306;2022-09-21T03:20:30;101646.22;;;9.44;100.00
41250;BME280;26984;59.928;30.306;2022-09-21T03:22:59;101651.41;;;9.46;100.00
41250;BME280;26984;59.928;30.306;2022-09-21T03:25:27;101652.78;;;9.56;100.00
41250;BME280;26984;59.928;30.306;2022-09-21T03:27:54;101652.53;;;9.51;100.00
41250;BME280;26984;59.928;30.306;2022-09-21T03:30:22;101660.59;;;9.66;100.00
41250;BME280;26984;59.928;30.306;2022-09-21T03:32:50;101666.34;;;9.63;100.00
41250;BME280;26984;59.928;30.306;2022-09-21T03:35:18;101658.94;;;9.65;100.00
41250;BME280;26984;59.928;30.306;2022-09-21T03:37:46;101676.38;;;9.69;100.00
41250;BME280;26984;59.928;30.306;2022-09-21T03:40:15;101676.75;;;9.66;100.00
41250;BME280;26984;59.928;30.306;2022-09-21T03:42:44;101679.44;;;9.66;100.00
41250;BME280;26984;59.928;30.306;2022-09-21T03:45:12;101679.34;;;9.74;100.00
41250;BME280;26984;59.928;30.306;2022-09-21T03:47:39;101684.44;;;9.69;100.00
41250;BME280;26984;59.928;30.306;2022-09-21T03:50:07;101678.69;;;9.72;100.00
41250;BME280;26984;59.928;30.306;2022-09-21T03:52:34;101689.94;;;9.76;100.00
41250;BME280;26984;59.928;30.306;2022-09-21T03:55:03;101686.97;;;9.86;100.00
41250;BME280;26984;59.928;30.306;2022-09-21T03:57:32;101692.16;;;9.87;100.00
41250;BME280;26984;59.928;30.306;2022-09-21T04:00:00;101699.50;;;9.93;100.00
41250;BME280;26984;59.928;30.306;2022-09-21T04:02:30;101696.81;;;9.93;100.00
41250;BME280;26984;59.928;30.306;2022-09-21T04:04:57;101691.97;;;10.03;100.00
41250;BME280;26984;59.928;30.306;2022-09-21T04:07:24;101696.91;;;10.00;100.00
41250;BME280;26984;59.928;30.306;2022-09-21T04:09:52;101704.41;;;10.04;100.00
41250;BME280;26984;59.928;30.306;2022-09-21T04:12:20;101710.25;;;10.08;100.00
41250;BME280;26984;59.928;30.306;2022-09-21T04:14:49;101714.31;;;10.19;100.00
41250;BME280;26984;59.928;30.306;2022-09-21T04:17:16;101718.69;;;10.20;100.00
41250;BME280;26984;59.928;30.306;2022-09-21T04:19:44;101725.94;;;10.19;100.00
41250;BME280;26984;59.928;30.306;2022-09-21T04:22:11;101726.13;;;10.18;100.00
41250;BME280;26984;59.928;30.306;2022-09-21T04:24:38;101724.63;;;10.15;100.00
41250;BME280;26984;59.928;30.306;2022-09-21T04:27:06;101729.09;;;10.23;100.00
41250;BME280;26984;59.928;30.306;2022-09-21T04:29:34;101728.63;;;10.19;100.00
41250;BME280;26984;59.928;30.306;2022-09-21T04:32:03;101730.41;;;10.27;100.00
41250;BME280;26984;59.928;30.306;2022-09-21T04:34:31;101741.06;;;10.35;100.00
41250;BME280;26984;59.928;30.306;2022-09-21T04:36:58;101741.47;;;10.32;100.00
41250;BME280;26984;59.928;30.306;2022-09-21T04:39:25;101739.78;;;10.31;100.00
41250;BME280;26984;59.928;30.306;2022-09-21T04:41:53;101737.75;;;10.33;100.00
41250;BME280;26984;59.928;30.306;2022-09-21T04:44:20;101745.91;;;10.40;100.00
41250;BME280;26984;59.928;30.306;2022-09-21T04:46:48;101745.34;;;10.44;100.00
41250;BME280;26984;59.928;30.306;2022-09-21T04:49:16;101745.19;;;10.46;100.00
41250;BME280;26984;59.928;30.306;2022-09-21T04:51:44;101748.50;;;10.48;100.00
41250;BME280;26984;59.928;30.306;2022-09-21T04:54:11;101748.25;;;10.43;100.00
41250;BME280;26984;59.928;30.306;2022-09-21T04:56:38;101754.91;;;10.47;100.00
41250;BME280;26984;59.928;30.306;2022-09-21T04:59:06;101754.91;;;10.47;100.00
41250;BME280;26984;59.928;30.306;2022-09-21T05:01:33;101747.91;;;10.52;100.00
41250;BME280;26984;59.928;30.306;2022-09-21T05:04:01;101756.66;;;10.54;100.00
41250;BME280;26984;59.928;30.306;2022-09-21T05:06:30;101757.94;;;10.59;100.00
41250;BME280;26984;59.928;30.306;2022-09-21T05:08:57;101768.16;;;10.63;100.00
41250;BME280;26984;59.928;30.306;2022-09-21T05:11:42;101765.75;;;10.68;100.00
41250;BME280;26984;59.928;30.306;2022-09-21T05:14:10;101760.97;;;10.70;100.00
41250;BME280;26984;59.928;30.306;2022-09-21T05:16:37;101769.34;;;10.75;100.00
41250;BME280;26984;59.928;30.306;2022-09-21T05:19:04;101777.69;;;10.81;100.00
41250;BME280;26984;59.928;30.306;2022-09-21T05:21:33;101768.47;;;10.90;100.00
41250;BME280;26984;59.928;30.306;2022-09-21T05:24:02;101774.84;;;11.03;100.00
41250;BME280;26984;59.928;30.306;2022-09-21T05:26:29;101775.81;;;11.17;100.00
41250;BME280;26984;59.928;30.306;2022-09-21T05:28:57;101775.69;;;11.25;100.00
41250;BME280;26984;59.928;30.306;2022-09-21T05:31:32;101775.94;;;11.31;100.00
41250;BME280;26984;59.928;30.306;2022-09-21T05:34:04;101779.28;;;11.33;100.00
41250;BME280;26984;59.928;30.306;2022-09-21T05:36:38;101788.59;;;11.30;100.00
41250;BME280;26984;59.928;30.306;2022-09-21T05:39:07;101786.28;;;11.27;100.00
41250;BME280;26984;59.928;30.306;2022-09-21T05:41:35;101787.56;;;11.31;100.00
41250;BME280;26984;59.928;30.306;2022-09-21T05:44:03;101792.19;;;11.37;100.00
41250;BME280;26984;59.928;30.306;2022-09-21T05:46:33;101791.47;;;11.50;100.00
41250;BME280;26984;59.928;30.306;2022-09-21T05:49:02;101793.25;;;11.64;100.00
41250;BME280;26984;59.928;30.306;2022-09-21T05:51:33;101797.91;;;11.70;100.00
41250;BME280;26984;59.928;30.306;2022-09-21T05:54:06;101787.94;;;11.71;100.00
41250;BME280;26984;59.928;30.306;2022-09-21T05:56:42;101799.34;;;11.73;100.00
41250;BME280;26984;59.928;30.306;2022-09-21T05:59:20;101798.78;;;11.78;100.00
41250;BME280;26984;59.928;30.306;2022-09-21T06:01:55;101801.72;;;11.83;100.00
41250;BME280;26984;59.928;30.306;2022-09-21T06:04:23;101797.22;;;11.90;100.00
41250;BME280;26984;59.928;30.306;2022-09-21T06:06:51;101794.31;;;11.91;100.00
41250;BME280;26984;59.928;30.306;2022-09-21T06:09:20;101806.16;;;11.90;100.00
41250;BME280;26984;59.928;30.306;2022-09-21T06:11:47;101801.03;;;12.02;100.00
41250;BME280;26984;59.928;30.306;2022-09-21T06:14:14;101807.97;;;12.11;100.00
41250;BME280;26984;59.928;30.306;2022-09-21T06:16:49;101803.00;;;12.15;100.00
41250;BME280;26984;59.928;30.306;2022-09-21T06:19:16;101809.88;;;12.17;100.00
41250;BME280;26984;59.928;30.306;2022-09-21T06:21:44;101806.63;;;12.29;100.00
41250;BME280;26984;59.928;30.306;2022-09-21T06:24:11;101817.28;;;12.37;100.00
41250;BME280;26984;59.928;30.306;2022-09-21T06:26:40;101811.72;;;12.52;100.00
41250;BME280;26984;59.928;30.306;2022-09-21T06:29:08;101814.88;;;12.55;100.00
41250;BME280;26984;59.928;30.306;2022-09-21T06:31:35;101803.66;;;12.58;100.00
41250;BME280;26984;59.928;30.306;2022-09-21T06:34:02;101818.66;;;12.61;100.00
41250;BME280;26984;59.928;30.306;2022-09-21T06:36:30;101821.53;;;12.53;100.00
41250;BME280;26984;59.928;30.306;2022-09-21T06:38:58;101820.84;;;12.44;100.00
41250;BME280;26984;59.928;30.306;2022-09-21T06:41:25;101814.38;;;12.45;100.00
41250;BME280;26984;59.928;30.306;2022-09-21T06:43:54;101814.44;;;12.52;100.00
41250;BME280;26984;59.928;30.306;2022-09-21T06:46:22;101821.13;;;12.62;100.00
41250;BME280;26984;59.928;30.306;2022-09-21T06:48:50;101824.56;;;12.78;100.00
41250;BME280;26984;59.928;30.306;2022-09-21T06:51:17;101823.16;;;12.95;100.00
41250;BME280;26984;59.928;30.306;2022-09-21T06:53:46;101823.19;;;13.08;100.00
41250;BME280;26984;59.928;30.306;2022-09-21T06:56:13;101829.44;;;13.15;100.00
41250;BME280;26984;59.928;30.306;2022-09-21T06:58:41;101825.28;;;13.19;100.00
41250;BME280;26984;59.928;30.306;2022-09-21T07:01:10;101831.41;;;13.35;100.00
41250;BME280;26984;59.928;30.306;2022-09-21T07:03:38;101836.84;;;13.55;100.00
41250;BME280;26984;59.928;30.306;2022-09-21T07:06:06;101836.44;;;13.71;100.00
41250;BME280;26984;59.928;30.306;2022-09-21T07:08:34;101840.81;;;13.79;100.00
41250;BME280;26984;59.928;30.306;2022-09-21T07:11:01;101835.41;;;13.79;100.00
41250;BME280;26984;59.928;30.306;2022-09-21T07:13:29;101843.34;;;13.80;100.00
41250;BME280;26984;59.928;30.306;2022-09-21T07:15:56;101841.22;;;13.69;100.00
41250;BME280;26984;59.928;30.306;2022-09-21T07:18:26;101842.50;;;13.67;100.00
41250;BME280;26984;59.928;30.306;2022-09-21T07:20:53;101843.31;;;13.54;100.00
41250;BME280;26984;59.928;30.306;2022-09-21T07:23:20;101842.25;;;13.35;100.00
41250;BME280;26984;59.928;30.306;2022-09-21T07:25:48;101846.41;;;13.31;100.00
41250;BME280;26984;59.928;30.306;2022-09-21T07:28:17;101849.53;;;13.34;100.00
41250;BME280;26984;59.928;30.306;2022-09-21T07:30:45;101853.94;;;13.49;100.00
41250;BME280;26984;59.928;30.306;2022-09-21T07:33:12;101851.63;;;13.59;100.00
41250;BME280;26984;59.928;30.306;2022-09-21T07:35:48;101850.19;;;13.76;100.00
41250;BME280;26984;59.928;30.306;2022-09-21T07:38:16;101861.03;;;13.96;100.00
41250;BME280;26984;59.928;30.306;2022-09-21T07:40:43;101861.44;;;14.00;100.00
41250;BME280;26984;59.928;30.306;2022-09-21T07:43:10;101868.53;;;13.94;100.00
41250;BME280;26984;59.928;30.306;2022-09-21T07:45:38;101858.75;;;13.93;100.00
41250;BME280;26984;59.928;30.306;2022-09-21T07:48:05;101866.44;;;13.83;100.00
41250;BME280;26984;59.928;30.306;2022-09-21T07:50:33;101875.00;;;13.67;100.00
41250;BME280;26984;59.928;30.306;2022-09-21T07:53:03;101873.28;;;13.59;100.00
41250;BME280;26984;59.928;30.306;2022-09-21T07:55:30;101866.44;;;13.56;100.00
41250;BME280;26984;59.928;30.306;2022-09-21T07:57:58;101877.25;;;13.50;100.00
41250;BME280;26984;59.928;30.306;2022-09-21T08:00:43;101871.81;;;13.43;100.00
41250;BME280;26984;59.928;30.306;2022-09-21T08:03:10;101878.25;;;13.35;100.00
41250;BME280;26984;59.928;30.306;2022-09-21T08:05:38;101878.03;;;13.24;100.00
41250;BME280;26984;59.928;30.306;2022-09-21T08:08:06;101869.81;;;13.10;100.00
41250;BME280;26984;59.928;30.306;2022-09-21T08:10:34;101862.06;;;13.01;100.00
41250;BME280;26984;59.928;30.306;2022-09-21T08:13:02;101871.03;;;13.01;100.00
41250;BME280;26984;59.928;30.306;2022-09-21T08:15:29;101866.44;;;12.95;100.00
41250;BME280;26984;59.928;30.306;2022-09-21T08:17:56;101870.16;;;12.94;100.00
41250;BME280;26984;59.928;30.306;2022-09-21T08:20:25;101870.38;;;12.92;100.00
41250;BME280;26984;59.928;30.306;2022-09-21T08:22:54;101878.28;;;12.94;100.00
41250;BME280;26984;59.928;30.306;2022-09-21T08:25:23;101873.72;;;13.01;100.00
41250;BME280;26984;59.928;30.306;2022-09-21T08:27:50;101864.91;;;13.27;100.00
41250;BME280;26984;59.928;30.306;2022-09-21T08:30:17;101867.25;;;13.57;100.00
41250;BME280;26984;59.928;30.306;2022-09-21T08:32:45;101861.66;;;13.72;100.00
41250;BME280;26984;59.928;30.306;2022-09-21T08:35:12;101869.78;;;13.85;100.00
41250;BME280;26984;59.928;30.306;2022-09-21T08:37:40;101860.63;;;13.99;100.00
41250;BME280;26984;59.928;30.306;2022-09-21T08:40:08;101870.81;;;14.04;100.00
41250;BME280;26984;59.928;30.306;2022-09-21T08:42:41;101869.34;;;14.21;99.43
41250;BME280;26984;59.928;30.306;2022-09-21T08:45:12;101867.22;;;14.43;97.72
41250;BME280;26984;59.928;30.306;2022-09-21T08:47:42;101869.09;;;14.49;96.30
41250;BME280;26984;59.928;30.306;2022-09-21T08:50:21;101869.53;;;14.46;95.16
41250;BME280;26984;59.928;30.306;2022-09-21T08:52:51;101871.81;;;14.36;95.04
41250;BME280;26984;59.928;30.306;2022-09-21T08:55:20;101873.31;;;14.19;96.24
41250;BME280;26984;59.928;30.306;2022-09-21T08:57:50;101875.00;;;14.06;98.46
41250;BME280;26984;59.928;30.306;2022-09-21T09:00:19;101872.69;;;14.03;99.06
41250;BME280;26984;59.928;30.306;2022-09-21T09:02:53;101882.28;;;14.06;99.59
41250;BME280;26984;59.928;30.306;2022-09-21T09:05:32;101871.03;;;14.02;99.24
41250;BME280;26984;59.928;30.306;2022-09-21T09:08:08;101868.75;;;14.06;99.82
41250;BME280;26984;59.928;30.306;2022-09-21T09:10:41;101871.03;;;14.02;100.00
41250;BME280;26984;59.928;30.306;2022-09-21T09:13:18;101871.03;;;14.02;100.00
41250;BME280;26984;59.928;30.306;2022-09-21T09:15:54;101875.00;;;14.06;100.00
41250;BME280;26984;59.928;30.306;2022-09-21T09:18:24;101876.84;;;14.19;99.66
41250;BME280;26984;59.928;30.306;2022-09-21T09:20:56;101872.47;;;14.45;97.12
41250;BME280;26984;59.928;30.306;2022-09-21T09:23:24;101865.78;;;14.54;95.38
41250;BME280;26984;59.928;30.306;2022-09-21T09:25:53;101872.03;;;14.54;94.45
41250;BME280;26984;59.928;30.306;2022-09-21T09:28:25;101877.22;;;14.49;92.32
41250;BME280;26984;59.928;30.306;2022-09-21T09:30:56;101875.16;;;14.51;93.46
41250;BME280;26984;59.928;30.306;2022-09-21T09:33:25;101876.22;;;14.50;93.39
41250;BME280;26984;59.928;30.306;2022-09-21T09:35:54;101880.38;;;14.59;94.03
41250;BME280;26984;59.928;30.306;2022-09-21T09:38:26;101885.78;;;14.73;92.16
41250;BME280;26984;59.928;30.306;2022-09-21T09:40:58;101882.53;;;15.02;92.00
41250;BME280;26984;59.928;30.306;2022-09-21T09:43:33;101887.00;;;15.22;89.35
41250;BME280;26984;59.928;30.306;2022-09-21T09:46:07;101885.31;;;15.27;89.69
41250;BME280;26984;59.928;30.306;2022-09-21T09:48:43;101889.66;;;15.35;90.62
41250;BME280;26984;59.928;30.306;2022-09-21T09:51:15;101885.50;;;15.32;91.50
41250;BME280;26984;59.928;30.306;2022-09-21T09:53:44;101893.44;;;15.34;91.72
41250;BME280;26984;59.928;30.306;2022-09-21T09:56:11;101896.63;;;15.24;92.41
41250;BME280;26984;59.928;30.306;2022-09-21T09:58:42;101893.53;;;15.14;93.52
41250;BME280;26984;59.928;30.306;2022-09-21T10:04:02;101896.50;;;15.06;93.92
41250;BME280;26984;59.928;30.306;2022-09-21T10:06:31;101900.88;;;15.00;94.11
41250;BME280;26984;59.928;30.306;2022-09-21T10:08:58;101902.38;;;14.96;94.43
41250;BME280;26984;59.928;30.306;2022-09-21T10:11:33;101907.63;;;14.84;94.75
41250;BME280;26984;59.928;30.306;2022-09-21T10:14:09;101904.94;;;14.78;94.67
41250;BME280;26984;59.928;30.306;2022-09-21T10:16:40;101903.47;;;14.75;95.80
41250;BME280;26984;59.928;30.306;2022-09-21T10:19:12;101910.81;;;14.68;96.14
41250;BME280;26984;59.928;30.306;2022-09-21T10:21:40;101908.09;;;14.61;96.88
41250;BME280;26984;59.928;30.306;2022-09-21T10:24:14;101913.75;;;14.60;97.11
41250;BME280;26984;59.928;30.306;2022-09-21T10:26:46;101914.34;;;14.62;96.35
41250;BME280;26984;59.928;30.306;2022-09-21T10:29:27;101915.19;;;14.69;96.34
41250;BME280;26984;59.928;30.306;2022-09-21T10:31:56;101911.41;;;14.77;92.99
41250;BME280;26984;59.928;30.306;2022-09-21T10:34:23;101909.56;;;14.71;90.66
41250;BME280;26984;59.928;30.306;2022-09-21T10:36:52;101913.47;;;14.81;91.28
41250;BME280;26984;59.928;30.306;2022-09-21T10:39:22;101912.63;;;14.94;90.27
41250;BME280;26984;59.928;30.306;2022-09-21T10:41:51;101916.91;;;15.15;90.32
41250;BME280;26984;59.928;30.306;2022-09-21T10:44:21;101910.41;;;15.23;88.79
41250;BME280;26984;59.928;30.306;2022-09-21T10:46:49;101911.41;;;15.28;89.75
41250;BME280;26984;59.928;30.306;2022-09-21T10:49:19;101915.31;;;15.39;88.27
41250;BME280;26984;59.928;30.306;2022-09-21T10:51:47;101916.91;;;15.53;88.66
41250;BME280;26984;59.928;30.306;2022-09-21T10:54:17;101917.28;;;15.64;88.40
41250;BME280;26984;59.928;30.306;2022-09-21T10:56:50;101917.28;;;15.70;88.51
41250;BME280;26984;59.928;30.306;2022-09-21T10:59:24;101918.50;;;15.74;91.10
41250;BME280;26984;59.928;30.306;2022-09-21T11:01:52;101923.25;;;15.79;91.73
41250;BME280;26984;59.928;30.306;2022-09-21T11:04:26;101935.81;;;15.80;89.60
41250;BME280;26984;59.928;30.306;2022-09-21T11:06:57;101934.31;;;15.84;89.08
41250;BME280;26984;59.928;30.306;2022-09-21T11:09:28;101929.47;;;15.86;88.06
41250;BME280;26984;59.928;30.306;2022-09-21T11:12:00;101932.19;;;15.86;88.70
41250;BME280;26984;59.928;30.306;2022-09-21T11:14:36;101922.91;;;16.00;87.32
41250;BME280;26984;59.928;30.306;2022-09-21T11:17:10;101924.06;;;16.11;85.59
41250;BME280;26984;59.928;30.306;2022-09-21T11:19:41;101934.94;;;16.11;84.42
41250;BME280;26984;59.928;30.306;2022-09-21T11:22:12;101932.69;;;16.08;82.92
41250;BME280;26984;59.928;30.306;2022-09-21T11:24:43;101924.19;;;15.98;82.59
41250;BME280;26984;59.928;30.306;2022-09-21T11:27:14;101928.59;;;15.92;84.50
41250;BME280;26984;59.928;30.306;2022-09-21T11:29:46;101928.22;;;15.89;86.19
41250;BME280;26984;59.928;30.306;2022-09-21T11:32:20;101920.03;;;15.95;85.64
41250;BME280;26984;59.928;30.306;2022-09-21T11:37:50;101924.63;;;16.20;84.70
41250;BME280;26984;59.928;30.306;2022-09-21T11:40:32;101924.84;;;16.18;84.51
41250;BME280;26984;59.928;30.306;2022-09-21T11:43:07;101923.06;;;16.31;83.25
41250;BME280;26984;59.928;30.306;2022-09-21T11:48:29;101930.03;;;16.26;79.56
41250;BME280;26984;59.928;30.306;2022-09-21T11:51:06;101932.13;;;16.24;77.23
41250;BME280;26984;59.928;30.306;2022-09-21T11:53:43;101927.94;;;16.47;77.62
41250;BME280;26984;59.928;30.306;2022-09-21T11:56:17;101928.41;;;16.62;74.06
41250;BME280;26984;59.928;30.306;2022-09-21T11:58:50;101929.19;;;16.69;75.11
41250;BME280;26984;59.928;30.306;2022-09-21T12:01:29;101922.34;;;16.85;75.38
41250;BME280;26984;59.928;30.306;2022-09-21T12:04:08;101926.81;;;16.98;74.32
41250;BME280;26984;59.928;30.306;2022-09-21T12:06:44;101927.38;;;17.00;71.88
41250;BME280;26984;59.928;30.306;2022-09-21T12:09:18;101925.34;;;16.95;72.38
41250;BME280;26984;59.928;30.306;2022-09-21T12:11:52;101931.47;;;16.72;73.53
41250;BME280;26984;59.928;30.306;2022-09-21T12:14:25;101929.84;;;16.65;73.28
41250;BME280;26984;59.928;30.306;2022-09-21T12:16:58;101929.47;;;16.61;74.46
41250;BME280;26984;59.928;30.306;2022-09-21T12:19:31;101939.13;;;16.57;74.89
41250;BME280;26984;59.928;30.306;2022-09-21T12:22:05;101936.56;;;16.44;74.38
41250;BME280;26984;59.928;30.306;2022-09-21T12:24:35;101944.34;;;16.40;76.60
41250;BME280;26984;59.928;30.306;2022-09-21T12:27:07;101939.28;;;16.44;77.82
41250;BME280;26984;59.928;30.306;2022-09-21T12:29:36;101947.59;;;16.49;76.59
41250;BME280;26984;59.928;30.306;2022-09-21T12:32:11;101942.31;;;16.29;75.62
41250;BME280;26984;59.928;30.306;2022-09-21T12:34:43;101951.56;;;15.96;77.56
41250;BME280;26984;59.928;30.306;2022-09-21T12:37:14;101949.84;;;15.77;78.96
41250;BME280;26984;59.928;30.306;2022-09-21T12:39:47;101949.31;;;15.55;80.75
41250;BME280;26984;59.928;30.306;2022-09-21T12:42:22;101946.00;;;15.46;81.48
41250;BME280;26984;59.928;30.306;2022-09-21T12:44:54;101957.31;;;15.37;83.41
41250;BME280;26984;59.928;30.306;2022-09-21T12:47:24;101954.78;;;15.48;83.07
41250;BME280;26984;59.928;30.306;2022-09-21T12:49:55;101958.28;;;15.55;83.61
41250;BME280;26984;59.928;30.306;2022-09-21T12:52:24;101950.53;;;15.66;83.71
41250;BME280;26984;59.928;30.306;2022-09-21T12:54:57;101954.47;;;15.70;82.88
41250;BME280;26984;59.928;30.306;2022-09-21T12:57:32;101959.69;;;15.71;83.65
41250;BME280;26984;59.928;30.306;2022-09-21T13:00:02;101960.06;;;15.75;83.71